createdAt,value
2022-11-09T00:00:27.000Z,284.65
2022-11-09T00:01:53.000Z,284.71
2022-11-09T00:03:59.000Z,284.71
2022-11-09T00:05:26.000Z,284.71
2022-11-09T00:07:32.000Z,284.71
2022-11-09T00:10:23.000Z,284.71
2022-11-09T00:11:49.000Z,284.77
2022-11-09T00:13:55.000Z,284.77
2022-11-09T00:15:22.000Z,284.77
2022-11-09T00:17:28.000Z,284.77
2022-11-09T00:18:55.000Z,284.77
2022-11-09T00:21:01.000Z,284.71
2022-11-09T00:22:27.000Z,284.77
2022-11-09T00:24:33.000Z,284.77
2022-11-09T00:26:00.000Z,284.71
2022-11-09T00:28:06.000Z,284.65
2022-11-09T00:29:32.000Z,284.71
2022-11-09T00:31:38.000Z,284.65
2022-11-09T00:33:05.000Z,284.65
2022-11-09T00:35:11.000Z,284.65
2022-11-09T00:36:38.000Z,284.65
2022-11-09T00:38:44.000Z,284.59
2022-11-09T00:40:10.000Z,284.59
2022-11-09T00:42:16.000Z,284.59
2022-11-09T00:43:43.000Z,284.59
2022-11-09T00:45:49.000Z,284.52
2022-11-09T00:48:40.000Z,284.52
2022-11-09T00:50:07.000Z,284.52
2022-11-09T00:52:13.000Z,284.52
2022-11-09T00:53:39.000Z,284.52
2022-11-09T00:55:45.000Z,284.52
2022-11-09T00:57:12.000Z,284.52
2022-11-09T00:59:18.000Z,284.59
2022-11-09T01:00:45.000Z,284.52
2022-11-09T01:02:51.000Z,284.52
2022-11-09T01:04:17.000Z,284.59
2022-11-09T01:06:23.000Z,284.52
2022-11-09T01:07:50.000Z,284.52
2022-11-09T01:09:56.000Z,284.52
2022-11-09T01:11:22.000Z,284.59
2022-11-09T01:13:29.000Z,284.52
2022-11-09T01:14:55.000Z,284.59
2022-11-09T01:17:01.000Z,284.59
2022-11-09T01:18:28.000Z,284.59
2022-11-09T01:20:34.000Z,284.65
2022-11-09T01:22:00.000Z,284.65
2022-11-09T01:24:07.000Z,284.59
2022-11-09T01:26:58.000Z,284.65
2022-11-09T01:28:24.000Z,284.65
2022-11-09T01:30:30.000Z,284.71
2022-11-09T01:31:57.000Z,284.71
2022-11-09T01:34:03.000Z,284.71
2022-11-09T01:35:29.000Z,284.84
2022-11-09T01:37:35.000Z,284.9
2022-11-09T01:39:02.000Z,284.9
2022-11-09T01:41:08.000Z,284.9
2022-11-09T01:42:35.000Z,284.77
2022-11-09T01:44:41.000Z,284.71
2022-11-09T01:46:07.000Z,284.71
2022-11-09T01:48:13.000Z,284.77
2022-11-09T01:49:40.000Z,284.65
2022-11-09T01:51:46.000Z,284.65
2022-11-09T01:53:12.000Z,284.65
2022-11-09T01:55:18.000Z,284.59
2022-11-09T01:56:45.000Z,284.59
2022-11-09T01:58:51.000Z,284.59
2022-11-09T02:00:18.000Z,284.59
2022-11-09T02:02:24.000Z,284.59
2022-11-09T02:05:15.000Z,284.52
2022-11-09T02:06:42.000Z,284.52
2022-11-09T02:08:48.000Z,284.52
2022-11-09T02:10:14.000Z,284.46
2022-11-09T02:12:20.000Z,284.46
2022-11-09T02:13:47.000Z,284.46
2022-11-09T02:15:53.000Z,284.46
2022-11-09T02:17:19.000Z,284.46
2022-11-09T02:19:25.000Z,284.46
2022-11-09T02:20:52.000Z,284.46
2022-11-09T02:22:58.000Z,284.4
2022-11-09T02:24:25.000Z,284.46
2022-11-09T02:26:31.000Z,284.4
2022-11-09T02:27:57.000Z,284.4
2022-11-09T02:30:03.000Z,284.4
2022-11-09T02:31:30.000Z,284.4
2022-11-09T02:33:36.000Z,284.4
2022-11-09T02:35:03.000Z,284.4
2022-11-09T02:37:09.000Z,284.4
2022-11-09T02:38:35.000Z,284.4
2022-11-09T02:40:41.000Z,284.4
2022-11-09T02:43:33.000Z,284.4
2022-11-09T02:44:59.000Z,284.4
2022-11-09T02:47:05.000Z,284.4
2022-11-09T02:48:32.000Z,284.4
2022-11-09T02:50:38.000Z,284.46
2022-11-09T02:52:05.000Z,284.46
2022-11-09T02:54:11.000Z,284.46
2022-11-09T02:55:37.000Z,284.46
2022-11-09T02:57:43.000Z,284.46
2022-11-09T02:59:10.000Z,284.4
2022-11-09T03:01:16.000Z,284.46
2022-11-09T03:02:43.000Z,284.4
2022-11-09T03:04:49.000Z,284.4
2022-11-09T03:06:15.000Z,284.46
2022-11-09T03:08:22.000Z,284.4
2022-11-09T03:09:48.000Z,284.4
2022-11-09T03:11:54.000Z,284.4
2022-11-09T03:13:21.000Z,284.46
2022-11-09T03:15:27.000Z,284.4
2022-11-09T03:16:53.000Z,284.46
2022-11-09T03:18:59.000Z,284.46
2022-11-09T03:21:50.000Z,284.46
2022-11-09T03:23:17.000Z,284.46
2022-11-09T03:25:23.000Z,284.46
2022-11-09T03:26:50.000Z,284.46
2022-11-09T03:28:56.000Z,284.46
2022-11-09T03:30:23.000Z,284.46
2022-11-09T03:32:29.000Z,284.46
2022-11-09T03:33:55.000Z,284.46
2022-11-09T03:36:01.000Z,284.46
2022-11-09T03:37:28.000Z,284.46
2022-11-09T03:39:34.000Z,284.46
2022-11-09T03:41:01.000Z,284.46
2022-11-09T03:43:07.000Z,284.46
2022-11-09T03:44:33.000Z,284.46
2022-11-09T03:46:39.000Z,284.46
2022-11-09T03:48:06.000Z,284.46
2022-11-09T03:50:12.000Z,284.46
2022-11-09T03:51:39.000Z,284.46
2022-11-09T03:53:45.000Z,284.46
2022-11-09T03:55:11.000Z,284.52
2022-11-09T03:57:17.000Z,284.52
2022-11-09T04:00:08.000Z,284.46
2022-11-09T04:01:35.000Z,284.46
2022-11-09T04:03:41.000Z,284.52
2022-11-09T04:05:08.000Z,284.46
2022-11-09T04:07:14.000Z,284.52
2022-11-09T04:08:40.000Z,284.52
2022-11-09T04:10:53.000Z,284.52
2022-11-09T04:12:20.000Z,284.52
2022-11-09T04:14:26.000Z,284.65
2022-11-09T04:15:53.000Z,284.65
2022-11-09T04:17:59.000Z,284.52
2022-11-09T04:19:25.000Z,284.59
2022-11-09T04:21:31.000Z,284.52
2022-11-09T04:22:58.000Z,284.52
2022-11-09T04:25:04.000Z,284.46
2022-11-09T04:26:30.000Z,284.46
2022-11-09T04:28:37.000Z,284.46
2022-11-09T04:30:03.000Z,284.46
2022-11-09T04:32:09.000Z,284.46
2022-11-09T04:33:36.000Z,284.46
2022-11-09T04:35:42.000Z,284.52
2022-11-09T04:38:33.000Z,284.52
2022-11-09T04:40:00.000Z,284.59
2022-11-09T04:42:06.000Z,284.59
2022-11-09T04:43:32.000Z,284.59
2022-11-09T04:45:38.000Z,284.59
2022-11-09T04:47:05.000Z,284.59
2022-11-09T04:49:11.000Z,284.59
2022-11-09T04:50:37.000Z,284.65
2022-11-09T04:52:43.000Z,284.65
2022-11-09T04:54:10.000Z,284.65
2022-11-09T04:56:16.000Z,284.65
2022-11-09T04:57:43.000Z,284.65
2022-11-09T04:59:49.000Z,284.71
2022-11-09T05:01:15.000Z,284.71
2022-11-09T05:03:21.000Z,284.65
2022-11-09T05:04:48.000Z,284.65
2022-11-09T05:06:54.000Z,284.65
2022-11-09T05:08:21.000Z,284.65
2022-11-09T05:10:27.000Z,284.71
2022-11-09T05:11:53.000Z,284.65
2022-11-09T05:13:59.000Z,284.65
2022-11-09T05:16:51.000Z,284.65
2022-11-09T05:18:17.000Z,284.65
2022-11-09T05:20:23.000Z,284.65
2022-11-09T05:21:50.000Z,284.65
2022-11-09T05:23:56.000Z,284.59
2022-11-09T05:25:22.000Z,284.59
2022-11-09T05:27:28.000Z,284.65
2022-11-09T05:28:55.000Z,284.59
2022-11-09T05:31:01.000Z,284.52
2022-11-09T05:32:27.000Z,284.52
2022-11-09T05:34:34.000Z,284.52
2022-11-09T05:36:00.000Z,284.59
2022-11-09T05:38:06.000Z,284.52
2022-11-09T05:39:33.000Z,284.52
2022-11-09T05:41:39.000Z,284.46
2022-11-09T05:43:05.000Z,284.46
2022-11-09T05:45:12.000Z,284.46
2022-11-09T05:47:07.000Z,284.46
2022-11-09T05:49:13.000Z,284.52
2022-11-09T05:50:40.000Z,284.46
2022-11-09T05:52:46.000Z,284.46
2022-11-09T05:55:37.000Z,284.4
2022-11-09T05:57:03.000Z,284.46
2022-11-09T05:59:09.000Z,284.4
2022-11-09T06:00:36.000Z,284.4
2022-11-09T06:02:42.000Z,284.4
2022-11-09T06:04:08.000Z,284.46
2022-11-09T06:06:14.000Z,284.4
2022-11-09T06:07:41.000Z,284.34
2022-11-09T06:09:47.000Z,284.34
2022-11-09T06:11:14.000Z,284.34
2022-11-09T06:13:28.000Z,284.4
2022-11-09T06:14:54.000Z,284.34
2022-11-09T06:17:00.000Z,284.34
2022-11-09T06:18:27.000Z,284.4
2022-11-09T06:20:33.000Z,284.34
2022-11-09T06:22:00.000Z,284.27
2022-11-09T06:24:06.000Z,284.27
2022-11-09T06:25:32.000Z,284.27
2022-11-09T06:27:38.000Z,284.27
2022-11-09T06:29:05.000Z,284.27
2022-11-09T06:31:11.000Z,284.27
2022-11-09T06:34:02.000Z,284.27
2022-11-09T06:35:29.000Z,284.27
2022-11-09T06:37:35.000Z,284.27
2022-11-09T06:39:01.000Z,284.27
2022-11-09T06:41:07.000Z,284.27
2022-11-09T06:42:34.000Z,284.27
2022-11-09T06:44:40.000Z,284.27
2022-11-09T06:46:07.000Z,284.21
2022-11-09T06:48:13.000Z,284.27
2022-11-09T06:49:39.000Z,284.27
2022-11-09T06:51:45.000Z,284.27
2022-11-09T06:53:12.000Z,284.27
2022-11-09T06:55:18.000Z,284.27
2022-11-09T06:56:44.000Z,284.27
2022-11-09T06:58:50.000Z,284.27
2022-11-09T07:00:17.000Z,284.27
2022-11-09T07:02:23.000Z,284.34
2022-11-09T07:03:50.000Z,284.34
2022-11-09T07:05:56.000Z,284.34
2022-11-09T07:07:22.000Z,284.34
2022-11-09T07:09:32.000Z,284.34
2022-11-09T07:12:23.000Z,284.34
2022-11-09T07:13:50.000Z,284.4
2022-11-09T07:16:01.000Z,284.4
2022-11-09T07:17:27.000Z,284.4
2022-11-09T07:19:34.000Z,284.4
2022-11-09T07:21:00.000Z,284.34
2022-11-09T07:23:06.000Z,284.4
2022-11-09T07:24:33.000Z,284.46
2022-11-09T07:26:39.000Z,284.4
2022-11-09T07:28:05.000Z,284.4
2022-11-09T07:30:11.000Z,284.4
2022-11-09T07:31:38.000Z,284.4
2022-11-09T07:33:44.000Z,284.4
2022-11-09T07:35:11.000Z,284.46
2022-11-09T07:37:17.000Z,284.46
2022-11-09T07:38:43.000Z,284.46
2022-11-09T07:40:49.000Z,284.46
2022-11-09T07:42:16.000Z,284.46
2022-11-09T07:44:22.000Z,284.52
2022-11-09T07:45:49.000Z,284.52
2022-11-09T07:47:55.000Z,284.52
2022-11-09T07:50:46.000Z,284.52
2022-11-09T07:52:12.000Z,284.59
2022-11-09T07:54:19.000Z,284.65
2022-11-09T07:55:45.000Z,284.59
2022-11-09T07:57:51.000Z,284.65
2022-11-09T07:59:18.000Z,284.71
2022-11-09T08:01:24.000Z,284.71
2022-11-09T08:02:50.000Z,284.77
2022-11-09T08:04:56.000Z,284.84
2022-11-09T08:06:23.000Z,284.84
2022-11-09T08:08:29.000Z,284.9
2022-11-09T08:09:56.000Z,284.96
2022-11-09T08:12:02.000Z,284.96
2022-11-09T08:13:28.000Z,285.02
2022-11-09T08:15:34.000Z,285.02
2022-11-09T08:17:01.000Z,285.02
2022-11-09T08:19:07.000Z,285.09
2022-11-09T08:20:33.000Z,285.15
2022-11-09T08:22:40.000Z,285.15
2022-11-09T08:24:06.000Z,285.21
2022-11-09T08:26:12.000Z,285.21
2022-11-09T08:29:04.000Z,285.21
2022-11-09T08:30:30.000Z,285.21
2022-11-09T08:32:36.000Z,285.21
2022-11-09T08:34:03.000Z,285.27
2022-11-09T08:36:09.000Z,285.27
2022-11-09T08:37:35.000Z,285.27
2022-11-09T08:39:42.000Z,285.27
2022-11-09T08:41:08.000Z,285.27
2022-11-09T08:43:17.000Z,285.34
2022-11-09T08:44:44.000Z,285.34
2022-11-09T08:46:50.000Z,285.34
2022-11-09T08:48:17.000Z,285.4
2022-11-09T08:50:23.000Z,285.4
2022-11-09T08:51:50.000Z,285.46
2022-11-09T08:53:56.000Z,285.52
2022-11-09T08:55:22.000Z,285.52
2022-11-09T08:57:28.000Z,285.52
2022-11-09T08:58:55.000Z,285.59
2022-11-09T09:01:01.000Z,285.59
2022-11-09T09:02:28.000Z,285.52
2022-11-09T09:04:34.000Z,285.52
2022-11-09T09:07:25.000Z,285.46
2022-11-09T09:08:51.000Z,285.46
2022-11-09T09:10:57.000Z,285.52
2022-11-09T09:12:24.000Z,285.52
2022-11-09T09:14:30.000Z,285.46
2022-11-09T09:15:57.000Z,285.52
2022-11-09T09:18:03.000Z,285.59
2022-11-09T09:19:29.000Z,285.65
2022-11-09T09:21:36.000Z,285.65
2022-11-09T09:23:02.000Z,285.65
2022-11-09T09:25:08.000Z,285.65
2022-11-09T09:26:35.000Z,285.59
2022-11-09T09:28:41.000Z,285.65
2022-11-09T09:30:07.000Z,285.65
2022-11-09T09:32:14.000Z,285.71
2022-11-09T09:33:40.000Z,285.71
2022-11-09T09:35:46.000Z,285.71
2022-11-09T09:37:13.000Z,285.77
2022-11-09T09:39:19.000Z,285.84
2022-11-09T09:40:46.000Z,285.96
2022-11-09T09:42:52.000Z,285.96
2022-11-09T09:45:43.000Z,286.09
2022-11-09T09:47:10.000Z,286.15
2022-11-09T09:49:16.000Z,286.15
2022-11-09T09:50:42.000Z,286.15
2022-11-09T09:52:48.000Z,286.09
2022-11-09T09:54:47.000Z,286.09
2022-11-09T09:56:56.000Z,286.02
2022-11-09T09:58:22.000Z,285.96
2022-11-09T10:00:28.000Z,286.02
2022-11-09T10:01:55.000Z,285.96
2022-11-09T10:04:01.000Z,286.02
2022-11-09T10:05:27.000Z,286.02
2022-11-09T10:07:34.000Z,286.02
2022-11-09T10:09:00.000Z,286.02
2022-11-09T10:11:06.000Z,286.02
2022-11-09T10:12:33.000Z,286.02
2022-11-09T10:14:39.000Z,285.96
2022-11-09T10:16:05.000Z,286.02
2022-11-09T10:18:11.000Z,286.09
2022-11-09T10:19:38.000Z,286.09
2022-11-09T10:21:44.000Z,286.09
2022-11-09T10:24:35.000Z,286.02
2022-11-09T10:26:17.000Z,286.02
2022-11-09T10:28:23.000Z,286.02
2022-11-09T10:29:50.000Z,285.96
2022-11-09T10:31:56.000Z,285.96
2022-11-09T10:33:23.000Z,285.96
2022-11-09T10:35:29.000Z,286.02
2022-11-09T10:36:55.000Z,286.02
2022-11-09T10:39:01.000Z,286.09
2022-11-09T10:40:28.000Z,286.09
2022-11-09T10:42:34.000Z,286.09
2022-11-09T10:44:01.000Z,286.09
2022-11-09T10:46:07.000Z,286.09
2022-11-09T10:47:33.000Z,286.09
2022-11-09T10:49:39.000Z,286.15
2022-11-09T10:51:06.000Z,286.15
2022-11-09T10:53:12.000Z,286.15
2022-11-09T10:54:39.000Z,286.09
2022-11-09T10:56:45.000Z,286.15
2022-11-09T10:58:30.000Z,286.15
2022-11-09T11:00:36.000Z,286.15
2022-11-09T11:03:27.000Z,286.09
2022-11-09T11:04:54.000Z,286.09
2022-11-09T11:07:00.000Z,286.09
2022-11-09T11:08:26.000Z,286.15
2022-11-09T11:10:33.000Z,286.09
2022-11-09T11:11:59.000Z,286.09
2022-11-09T11:14:05.000Z,286.09
2022-11-09T11:15:32.000Z,286.09
2022-11-09T11:17:38.000Z,286.09
2022-11-09T11:19:04.000Z,286.15
2022-11-09T11:21:10.000Z,286.09
2022-11-09T11:22:43.000Z,286.15
2022-11-09T11:24:49.000Z,286.09
2022-11-09T11:26:15.000Z,286.15
2022-11-09T11:28:21.000Z,286.15
2022-11-09T11:29:48.000Z,286.15
2022-11-09T11:31:54.000Z,286.15
2022-11-09T11:33:20.000Z,286.21
2022-11-09T11:35:27.000Z,286.15
2022-11-09T11:36:54.000Z,286.21
2022-11-09T11:39:00.000Z,286.21
2022-11-09T11:41:51.000Z,286.21
2022-11-09T11:43:18.000Z,286.21
2022-11-09T11:45:24.000Z,286.27
2022-11-09T11:47:05.000Z,286.27
2022-11-09T11:49:11.000Z,286.27
2022-11-09T11:50:38.000Z,286.34
2022-11-09T11:52:44.000Z,286.34
2022-11-09T11:54:10.000Z,286.4
2022-11-09T11:56:16.000Z,286.4
2022-11-09T11:57:43.000Z,286.4
2022-11-09T11:59:49.000Z,286.4
2022-11-09T12:01:15.000Z,286.4
2022-11-09T12:03:21.000Z,286.4
2022-11-09T12:04:48.000Z,286.4
2022-11-09T12:06:54.000Z,286.4
2022-11-09T12:08:21.000Z,286.4
2022-11-09T12:10:27.000Z,286.46
2022-11-09T12:11:54.000Z,286.46
2022-11-09T12:14:00.000Z,286.52
2022-11-09T12:15:27.000Z,286.52
2022-11-09T12:17:33.000Z,286.52
2022-11-09T12:20:24.000Z,286.46
2022-11-09T12:21:51.000Z,286.46
2022-11-09T12:23:57.000Z,286.46
2022-11-09T12:25:23.000Z,286.52
2022-11-09T12:27:29.000Z,286.52
2022-11-09T12:28:57.000Z,286.52
2022-11-09T12:31:03.000Z,286.52
2022-11-09T12:32:30.000Z,286.52
2022-11-09T12:34:36.000Z,286.52
2022-11-09T12:36:03.000Z,286.52
2022-11-09T12:38:09.000Z,286.59
2022-11-09T12:39:35.000Z,286.59
2022-11-09T12:41:41.000Z,286.59
2022-11-09T12:43:08.000Z,286.59
2022-11-09T12:45:14.000Z,286.59
2022-11-09T12:46:41.000Z,286.59
2022-11-09T12:48:47.000Z,286.65
2022-11-09T12:50:13.000Z,286.65
2022-11-09T12:52:19.000Z,286.65
2022-11-09T12:53:46.000Z,286.65
2022-11-09T12:55:52.000Z,286.65
2022-11-09T12:58:43.000Z,286.65
2022-11-09T13:00:09.000Z,286.65
2022-11-09T13:02:16.000Z,286.65
2022-11-09T13:03:42.000Z,286.65
2022-11-09T13:05:48.000Z,286.65
2022-11-09T13:07:15.000Z,286.65
2022-11-09T13:09:21.000Z,286.65
2022-11-09T13:10:47.000Z,286.65
2022-11-09T13:12:54.000Z,286.65
2022-11-09T13:14:20.000Z,286.65
2022-11-09T13:16:26.000Z,286.65
2022-11-09T13:17:53.000Z,286.65
2022-11-09T13:19:59.000Z,286.59
2022-11-09T13:21:25.000Z,286.59
2022-11-09T13:23:31.000Z,286.59
2022-11-09T13:25:24.000Z,286.59
2022-11-09T13:27:31.000Z,286.59
2022-11-09T13:28:57.000Z,286.52
2022-11-09T13:31:03.000Z,286.52
2022-11-09T13:32:30.000Z,286.52
2022-11-09T13:34:36.000Z,286.52
2022-11-09T13:37:27.000Z,286.52
2022-11-09T13:38:53.000Z,286.46
2022-11-09T13:41:00.000Z,286.46
2022-11-09T13:42:26.000Z,286.46
2022-11-09T13:44:32.000Z,286.4
2022-11-09T13:46:03.000Z,286.4
2022-11-09T13:48:10.000Z,286.4
2022-11-09T13:49:36.000Z,286.34
2022-11-09T13:51:42.000Z,286.34
2022-11-09T13:53:09.000Z,286.34
2022-11-09T13:55:15.000Z,286.34
2022-11-09T13:56:41.000Z,286.34
2022-11-09T13:58:47.000Z,286.34
2022-11-09T14:00:14.000Z,286.34
2022-11-09T14:02:20.000Z,286.27
2022-11-09T14:03:46.000Z,286.27
2022-11-09T14:05:53.000Z,286.27
2022-11-09T14:07:19.000Z,286.27
2022-11-09T14:09:25.000Z,286.27
2022-11-09T14:10:52.000Z,286.21
2022-11-09T14:12:58.000Z,286.21
2022-11-09T14:15:49.000Z,286.21
2022-11-09T14:17:15.000Z,286.21
2022-11-09T14:19:22.000Z,286.15
2022-11-09T14:20:48.000Z,286.15
2022-11-09T14:22:54.000Z,286.15
2022-11-09T14:24:21.000Z,286.15
2022-11-09T14:26:27.000Z,286.15
2022-11-09T14:27:53.000Z,286.15
2022-11-09T14:30:00.000Z,286.15
2022-11-09T14:31:26.000Z,286.09
2022-11-09T14:33:32.000Z,286.09
2022-11-09T14:34:59.000Z,286.09
2022-11-09T14:37:05.000Z,286.02
2022-11-09T14:38:31.000Z,286.02
2022-11-09T14:40:37.000Z,286.02
2022-11-09T14:42:04.000Z,286.02
2022-11-09T14:44:10.000Z,285.96
2022-11-09T14:45:37.000Z,286.02
2022-11-09T14:47:43.000Z,285.96
2022-11-09T14:49:09.000Z,285.96
2022-11-09T14:51:15.000Z,285.96
2022-11-09T14:54:06.000Z,285.9
2022-11-09T14:55:33.000Z,285.96
2022-11-09T14:57:39.000Z,285.96
2022-11-09T14:59:05.000Z,285.96
2022-11-09T15:01:12.000Z,285.96
2022-11-09T15:02:38.000Z,285.96
2022-11-09T15:04:44.000Z,285.96
2022-11-09T15:06:11.000Z,285.96
2022-11-09T15:08:17.000Z,285.9
2022-11-09T15:09:44.000Z,285.9
2022-11-09T15:11:50.000Z,285.84
2022-11-09T15:13:16.000Z,285.9
2022-11-09T15:15:23.000Z,285.9
2022-11-09T15:16:49.000Z,285.84
2022-11-09T15:18:55.000Z,285.84
2022-11-09T15:20:22.000Z,285.84
2022-11-09T15:22:28.000Z,285.84
2022-11-09T15:23:55.000Z,285.84
2022-11-09T15:26:01.000Z,285.77
2022-11-09T15:27:27.000Z,285.77
2022-11-09T15:29:33.000Z,285.71
2022-11-09T15:32:24.000Z,285.71
2022-11-09T15:33:51.000Z,285.71
2022-11-09T15:35:57.000Z,285.71
2022-11-09T15:37:24.000Z,285.71
2022-11-09T15:39:30.000Z,285.71
2022-11-09T15:40:56.000Z,285.77
2022-11-09T15:43:03.000Z,285.71
2022-11-09T15:44:29.000Z,285.71
2022-11-09T15:46:35.000Z,285.65
2022-11-09T15:48:02.000Z,285.65
2022-11-09T15:50:08.000Z,285.65
2022-11-09T15:51:34.000Z,285.65
2022-11-09T15:53:41.000Z,285.71
2022-11-09T15:55:07.000Z,285.65
2022-11-09T15:57:13.000Z,285.65
2022-11-09T15:58:40.000Z,285.59
2022-11-09T16:00:46.000Z,285.59
2022-11-09T16:02:13.000Z,285.52
2022-11-09T16:04:19.000Z,285.59
2022-11-09T16:05:45.000Z,285.59
2022-11-09T16:07:51.000Z,285.59
2022-11-09T16:10:42.000Z,285.59
2022-11-09T16:12:09.000Z,285.59
2022-11-09T16:14:15.000Z,285.59
2022-11-09T16:15:41.000Z,285.59
2022-11-09T16:17:48.000Z,285.59
2022-11-09T16:19:14.000Z,285.59
2022-11-09T16:21:20.000Z,285.52
2022-11-09T16:22:47.000Z,285.52
2022-11-09T16:24:53.000Z,285.46
2022-11-09T16:26:19.000Z,285.46
2022-11-09T16:28:25.000Z,285.46
2022-11-09T16:29:52.000Z,285.46
2022-11-09T16:31:58.000Z,285.4
2022-11-09T16:33:25.000Z,285.4
2022-11-09T16:35:31.000Z,285.4
2022-11-09T16:36:57.000Z,285.4
2022-11-09T16:39:03.000Z,285.34
2022-11-09T16:40:30.000Z,285.34
2022-11-09T16:42:36.000Z,285.27
2022-11-09T16:44:03.000Z,285.27
2022-11-09T16:46:09.000Z,285.27
2022-11-09T16:49:00.000Z,285.27
2022-11-09T16:50:26.000Z,285.27
2022-11-09T16:52:33.000Z,285.34
2022-11-09T16:53:59.000Z,285.27
2022-11-09T16:56:05.000Z,285.27
2022-11-09T16:57:32.000Z,285.27
2022-11-09T16:59:38.000Z,285.27
2022-11-09T17:01:04.000Z,285.27
2022-11-09T17:03:17.000Z,285.21
2022-11-09T17:04:43.000Z,285.21
2022-11-09T17:06:49.000Z,285.15
2022-11-09T17:08:16.000Z,285.15
2022-11-09T17:10:23.000Z,285.09
2022-11-09T17:11:49.000Z,285.09
2022-11-09T17:13:56.000Z,285.02
2022-11-09T17:15:22.000Z,285.02
2022-11-09T17:17:28.000Z,285.02
2022-11-09T17:18:55.000Z,285.02
2022-11-09T17:21:01.000Z,284.96
2022-11-09T17:22:27.000Z,284.96
2022-11-09T17:24:33.000Z,284.96
2022-11-09T17:27:25.000Z,284.96
2022-11-09T17:28:51.000Z,284.96
2022-11-09T17:30:58.000Z,284.96
2022-11-09T17:32:24.000Z,285.02
2022-11-09T17:34:30.000Z,284.96
2022-11-09T17:35:57.000Z,284.96
2022-11-09T17:38:03.000Z,284.9
2022-11-09T17:39:29.000Z,284.9
2022-11-09T17:41:35.000Z,284.9
2022-11-09T17:43:07.000Z,284.9
2022-11-09T17:45:13.000Z,284.9
2022-11-09T17:46:39.000Z,284.9
2022-11-09T17:48:46.000Z,284.84
2022-11-09T17:50:12.000Z,284.84
2022-11-09T17:52:19.000Z,284.84
2022-11-09T17:53:45.000Z,284.77
2022-11-09T17:55:51.000Z,284.71
2022-11-09T17:57:18.000Z,284.71
2022-11-09T17:59:24.000Z,284.65
2022-11-09T18:00:51.000Z,284.65
2022-11-09T18:02:57.000Z,284.65
2022-11-09T18:05:48.000Z,284.59
2022-11-09T18:07:14.000Z,284.65
2022-11-09T18:09:21.000Z,284.59
2022-11-09T18:11:06.000Z,284.59
2022-11-09T18:13:12.000Z,284.52
2022-11-09T18:14:38.000Z,284.52
2022-11-09T18:16:44.000Z,284.52
2022-11-09T18:18:11.000Z,284.52
2022-11-09T18:20:17.000Z,284.46
2022-11-09T18:21:43.000Z,284.46
2022-11-09T18:23:49.000Z,284.46
2022-11-09T18:25:16.000Z,284.4
2022-11-09T18:27:22.000Z,284.34
2022-11-09T18:28:54.000Z,284.34
2022-11-09T18:31:00.000Z,284.4
2022-11-09T18:32:27.000Z,284.34
2022-11-09T18:34:33.000Z,284.34
2022-11-09T18:36:00.000Z,284.27
2022-11-09T18:38:06.000Z,284.27
2022-11-09T18:39:37.000Z,284.21
2022-11-09T18:41:43.000Z,284.21
2022-11-09T18:44:35.000Z,284.34
2022-11-09T18:46:01.000Z,284.27
2022-11-09T18:48:07.000Z,284.27
2022-11-09T18:49:34.000Z,284.27
2022-11-09T18:51:40.000Z,284.21
2022-11-09T18:53:06.000Z,284.21
2022-11-09T18:55:12.000Z,284.15
2022-11-09T18:56:39.000Z,284.15
2022-11-09T18:58:45.000Z,284.27
2022-11-09T19:00:12.000Z,284.21
2022-11-09T19:02:18.000Z,284.21
2022-11-09T19:03:44.000Z,284.15
2022-11-09T19:05:50.000Z,284.09
2022-11-09T19:07:17.000Z,284.09
2022-11-09T19:09:23.000Z,284.09
2022-11-09T19:10:50.000Z,284.09
2022-11-09T19:12:56.000Z,284.09
2022-11-09T19:14:22.000Z,284.09
2022-11-09T19:16:28.000Z,284.09
2022-11-09T19:17:55.000Z,284.02
2022-11-09T19:20:01.000Z,283.96
2022-11-09T19:22:52.000Z,283.9
2022-11-09T19:24:19.000Z,283.96
2022-11-09T19:26:25.000Z,283.96
2022-11-09T19:27:51.000Z,284.02
2022-11-09T19:29:57.000Z,283.96
2022-11-09T19:31:29.000Z,283.9
2022-11-09T19:33:35.000Z,283.9
2022-11-09T19:35:01.000Z,283.96
2022-11-09T19:37:08.000Z,283.9
2022-11-09T19:38:34.000Z,283.96
2022-11-09T19:40:40.000Z,283.96
2022-11-09T19:42:07.000Z,283.96
2022-11-09T19:44:13.000Z,283.9
2022-11-09T19:45:39.000Z,283.9
2022-11-09T19:47:45.000Z,283.9
2022-11-09T19:49:12.000Z,283.96
2022-11-09T19:51:18.000Z,283.9
2022-11-09T19:52:44.000Z,283.84
2022-11-09T19:54:51.000Z,283.84
2022-11-09T19:56:17.000Z,283.9
2022-11-09T19:58:23.000Z,283.9
2022-11-09T20:01:14.000Z,283.84
2022-11-09T20:02:40.000Z,283.84
2022-11-09T20:04:47.000Z,283.96
2022-11-09T20:06:13.000Z,284.09
2022-11-09T20:08:19.000Z,284.09
2022-11-09T20:09:47.000Z,284.09
2022-11-09T20:11:53.000Z,284.15
2022-11-09T20:13:19.000Z,284.15
2022-11-09T20:15:25.000Z,284.09
2022-11-09T20:16:52.000Z,284.09
2022-11-09T20:18:58.000Z,284.09
2022-11-09T20:20:25.000Z,284.15
2022-11-09T20:22:31.000Z,284.09
2022-11-09T20:23:57.000Z,284.02
2022-11-09T20:26:04.000Z,283.96
2022-11-09T20:27:30.000Z,283.96
2022-11-09T20:29:36.000Z,283.96
2022-11-09T20:31:03.000Z,284.02
2022-11-09T20:33:09.000Z,284.15
2022-11-09T20:34:35.000Z,284.15
2022-11-09T20:36:41.000Z,284.21
2022-11-09T20:39:33.000Z,284.15
2022-11-09T20:40:59.000Z,284.21
2022-11-09T20:43:05.000Z,284.09
2022-11-09T20:44:32.000Z,284.09
2022-11-09T20:46:38.000Z,284.02
2022-11-09T20:48:04.000Z,284.02
2022-11-09T20:50:35.000Z,284.02
2022-11-09T20:52:01.000Z,284.02
2022-11-09T20:54:07.000Z,283.96
2022-11-09T20:55:34.000Z,283.96
2022-11-09T20:57:41.000Z,283.9
2022-11-09T20:59:07.000Z,283.84
2022-11-09T21:01:13.000Z,283.9
2022-11-09T21:02:40.000Z,283.84
2022-11-09T21:04:46.000Z,283.9
2022-11-09T21:06:12.000Z,283.9
2022-11-09T21:08:18.000Z,283.84
2022-11-09T21:09:46.000Z,283.84
2022-11-09T21:11:52.000Z,283.77
2022-11-09T21:13:18.000Z,283.71
2022-11-09T21:15:24.000Z,283.65
2022-11-09T21:18:15.000Z,283.52
2022-11-09T21:19:42.000Z,283.52
2022-11-09T21:21:48.000Z,283.46
2022-11-09T21:23:15.000Z,283.46
2022-11-09T21:25:21.000Z,283.46
2022-11-09T21:26:47.000Z,283.59
2022-11-09T21:28:54.000Z,283.59
2022-11-09T21:30:20.000Z,283.46
2022-11-09T21:32:26.000Z,283.4
2022-11-09T21:33:53.000Z,283.4
2022-11-09T21:35:59.000Z,283.34
2022-11-09T21:37:25.000Z,283.27
2022-11-09T21:39:31.000Z,283.34
2022-11-09T21:40:58.000Z,283.34
2022-11-09T21:43:11.000Z,283.27
2022-11-09T21:44:38.000Z,283.27
2022-11-09T21:46:44.000Z,283.21
2022-11-09T21:48:10.000Z,283.15
2022-11-09T21:50:16.000Z,283.09
2022-11-09T21:51:43.000Z,283.09
2022-11-09T21:53:49.000Z,283.15
2022-11-09T21:56:40.000Z,283.15
2022-11-09T21:58:07.000Z,283.21
2022-11-09T22:00:13.000Z,283.21
2022-11-09T22:01:39.000Z,283.21
2022-11-09T22:03:45.000Z,283.21
2022-11-09T22:05:12.000Z,283.21
2022-11-09T22:07:25.000Z,283.21
2022-11-09T22:08:52.000Z,283.27
2022-11-09T22:10:58.000Z,283.4
2022-11-09T22:12:25.000Z,283.4
2022-11-09T22:14:31.000Z,283.34
2022-11-09T22:15:57.000Z,283.27
2022-11-09T22:18:03.000Z,283.27
2022-11-09T22:19:30.000Z,283.27
2022-11-09T22:21:36.000Z,283.21
2022-11-09T22:23:02.000Z,283.27
2022-11-09T22:25:08.000Z,283.21
2022-11-09T22:26:35.000Z,283.27
2022-11-09T22:28:41.000Z,283.15
2022-11-09T22:30:08.000Z,283.15
2022-11-09T22:32:14.000Z,282.96
2022-11-09T22:35:05.000Z,282.96
2022-11-09T22:36:32.000Z,282.96
2022-11-09T22:38:38.000Z,282.9
2022-11-09T22:40:05.000Z,282.96
2022-11-09T22:42:11.000Z,282.9
2022-11-09T22:43:37.000Z,282.77
2022-11-09T22:45:43.000Z,282.77
2022-11-09T22:47:10.000Z,282.77
2022-11-09T22:49:16.000Z,282.77
2022-11-09T22:50:42.000Z,282.77
2022-11-09T22:52:48.000Z,282.77
2022-11-09T22:54:18.000Z,282.71